Time;durP1;ratioP1;P1;durP2;ratioP2;P2;SDS_P1;SDS_P2;PMS_P1;PMS_P2;Temp;Humidity;BMP_temperature;BMP_pressure;BME280_temperature;BME280_humidity;BME280_pressure;Samples;Min_cycle;Max_cycle;Signal;HPM_P1;HPM_P2
2022/01/08 00:01:34;;;;;;;5.65;3.65;;;;;;;1.05;74.33;98386.94;4916925;29;20056;-78
2022/01/08 00:04:00;;;;;;;3.83;3.50;;;;;;;1.06;74.64;98375.50;4918783;29;20670;-77
2022/01/08 00:06:26;;;;;;;4.57;3.45;;;;;;;1.09;74.58;98388.50;4903110;29;20147;-79
2022/01/08 00:08:53;;;;;;;4.10;3.40;;;;;;;1.02;74.47;98378.41;4903462;29;20072;-81
2022/01/08 00:11:21;;;;;;;3.65;3.25;;;;;;;1.03;74.43;98383.56;4903018;29;20102;-79
2022/01/08 00:13:47;;;;;;;5.50;3.65;;;;;;;1.00;74.25;98370.56;4887680;29;20527;-81
2022/01/08 00:16:13;;;;;;;4.80;3.63;;;;;;;1.05;74.60;98379.03;4887147;29;20635;-77
2022/01/08 00:18:40;;;;;;;6.07;4.00;;;;;;;1.03;74.68;98383.56;4918776;29;20059;-81
2022/01/08 00:21:05;;;;;;;4.28;3.58;;;;;;;1.05;74.15;98379.03;4919450;29;20051;-76
2022/01/08 00:23:31;;;;;;;5.13;3.90;;;;;;;1.07;74.32;98376.34;4919527;29;20052;-79
2022/01/08 00:26:00;;;;;;;5.13;3.63;;;;;;;0.99;74.19;98375.94;4918758;29;20056;-78
2022/01/08 00:28:27;;;;;;;5.25;3.88;;;;;;;1.00;74.50;98369.72;4918269;29;20056;-78
2022/01/08 00:30:53;;;;;;;3.95;3.55;;;;;;;1.04;74.45;98377.34;4918393;29;20055;-77
2022/01/08 00:33:20;;;;;;;4.45;3.80;;;;;;;1.05;74.08;98371.16;4934500;29;20099;-77
2022/01/08 00:35:46;;;;;;;5.25;4.20;;;;;;;1.08;74.04;98376.25;4918544;29;20051;-78
2022/01/08 00:38:13;;;;;;;4.65;4.07;;;;;;;1.05;74.46;98370.31;4918118;29;20385;-78
2022/01/08 00:40:39;;;;;;;4.60;4.10;;;;;;;1.00;74.91;98370.56;4919587;29;20078;-78
2022/01/08 00:43:05;;;;;;;7.95;4.18;;;;;;;0.97;74.69;98370.75;4918259;29;20043;-77
2022/01/08 00:45:31;;;;;;;4.82;4.20;;;;;;;1.03;74.91;98370.41;4918299;29;20051;-77
2022/01/08 00:47:57;;;;;;;5.35;4.75;;;;;;;1.07;74.69;98377.19;4918027;29;20122;-78
2022/01/08 00:50:23;;;;;;;6.03;5.05;;;;;;;1.10;74.76;98360.38;4886560;29;20412;-78
2022/01/08 00:52:49;;;;;;;5.68;4.82;;;;;;;1.13;74.82;98355.78;4918023;29;20051;-77
2022/01/08 00:55:15;;;;;;;7.40;5.13;;;;;;;1.18;74.70;98363.41;4902139;29;20056;-77
2022/01/08 00:57:41;;;;;;;6.65;5.43;;;;;;;1.24;74.58;98362.19;4917818;29;20075;-78
2022/01/08 01:00:09;;;;;;;5.95;5.25;;;;;;;1.24;74.51;98354.31;4901800;29;20084;-77
2022/01/08 01:02:36;;;;;;;5.97;4.60;;;;;;;1.18;74.50;98348.47;4901788;29;20036;-78
2022/01/08 01:05:03;;;;;;;5.43;4.72;;;;;;;1.17;74.54;98346.78;4901988;29;20105;-77
2022/01/08 01:07:30;;;;;;;7.35;5.10;;;;;;;1.13;75.14;98350.53;4917407;29;20084;-78
2022/01/08 01:09:56;;;;;;;7.45;5.20;;;;;;;1.15;74.90;98356.53;4886315;29;20036;-77
2022/01/08 01:12:21;;;;;;;7.25;5.47;;;;;;;1.13;74.93;98347.03;4917535;29;20135;-77
2022/01/08 01:14:47;;;;;;;6.68;5.32;;;;;;;1.11;75.14;98343.66;4902252;29;20105;-77
2022/01/08 01:17:13;;;;;;;7.70;5.25;;;;;;;1.14;74.85;98346.13;4934473;29;20123;-77
2022/01/08 01:19:39;;;;;;;6.65;5.15;;;;;;;1.12;75.35;98343.53;4886928;29;20126;-78
2022/01/08 01:22:06;;;;;;;6.43;4.63;;;;;;;1.06;74.87;98336.03;4901457;29;20534;-76
2022/01/08 01:24:33;;;;;;;6.05;4.70;;;;;;;1.14;74.51;98339.06;4886113;29;20098;-77
2022/01/08 01:29:34;;;;;;;6.60;4.90;;;;;;;1.02;75.04;98326.63;4901041;29;20086;-77
2022/01/08 01:48:15;;;;;;;5.80;4.97;;;;;;;1.10;75.26;98319.13;4903905;29;20060;-78
2022/01/08 01:50:41;;;;;;;7.70;5.90;;;;;;;1.23;75.09;98323.66;4917903;29;20523;-77
2022/01/08 01:53:07;;;;;;;5.32;4.75;;;;;;;1.11;75.35;98328.69;4932675;29;20051;-77
2022/01/08 01:55:34;;;;;;;7.60;4.50;;;;;;;1.13;75.17;98323.34;4916789;29;20485;-77
2022/01/08 01:58:00;;;;;;;8.52;5.45;;;;;;;1.16;74.94;98329.28;4900896;29;20100;-78
2022/01/08 02:00:26;;;;;;;5.85;4.90;;;;;;;1.13;75.34;98333.88;4916974;29;20056;-77
2022/01/08 02:02:52;;;;;;;5.00;4.47;;;;;;;1.06;75.43;98328.13;4886072;29;20076;-77
2022/01/08 02:05:18;;;;;;;7.07;4.90;;;;;;;1.05;75.25;98331.69;4901122;29;20052;-77
2022/01/08 02:07:44;;;;;;;7.55;4.78;;;;;;;1.06;75.16;98332.56;4916848;29;20123;-78
2022/01/08 02:10:10;;;;;;;5.50;4.55;;;;;;;1.08;74.99;98334.13;4900776;29;20139;-77
2022/01/08 02:12:35;;;;;;;6.72;5.07;;;;;;;1.05;74.84;98321.16;4900843;29;20087;-77
2022/01/08 02:15:02;;;;;;;4.80;4.30;;;;;;;0.94;75.15;98324.44;4917649;29;20068;-77
2022/01/08 02:17:28;;;;;;;7.57;4.53;;;;;;;0.97;74.94;98328.66;4885042;29;20048;-76
2022/01/08 02:19:55;;;;;;;6.30;4.03;;;;;;;0.92;74.59;98334.19;4917547;29;20054;-77
2022/01/08 02:22:21;;;;;;;5.63;4.32;;;;;;;0.78;74.80;98312.22;4916240;29;20048;-77
2022/01/08 02:24:47;;;;;;;5.82;4.43;;;;;;;0.86;74.62;98325.78;4931657;29;20079;-77
2022/01/08 02:27:17;;;;;;;6.53;4.53;;;;;;;0.78;74.46;98312.22;4931569;29;20048;-78
2022/01/08 02:29:43;;;;;;;8.52;5.15;;;;;;;0.89;74.34;98307.19;4931474;29;20040;-77
2022/01/08 02:32:12;;;;;;;6.60;5.00;;;;;;;0.87;73.97;98307.28;4916075;29;20044;-77
2022/01/08 02:34:39;;;;;;;6.93;4.80;;;;;;;0.92;73.65;98313.13;4900341;29;20040;-77
2022/01/08 02:37:06;;;;;;;5.63;4.70;;;;;;;0.87;73.83;98307.28;4916154;29;20499;-77
2022/01/08 02:39:38;;;;;;;5.90;5.10;;;;;;;0.99;73.60;98316.25;4915873;29;20052;-77
2022/01/08 02:42:05;;;;;;;7.07;4.30;;;;;;;0.92;73.19;98299.13;4916086;29;20131;-77
2022/01/08 02:44:31;;;;;;;5.50;4.18;;;;;;;0.87;73.08;98309.06;4915869;29;20044;-77
2022/01/08 02:46:57;;;;;;;6.55;5.00;;;;;;;0.93;73.29;98316.59;4917084;29;20048;-77
2022/01/08 02:49:23;;;;;;;5.78;4.30;;;;;;;0.87;72.87;98301.19;4916964;29;20389;-78
2022/01/08 02:51:50;;;;;;;4.57;4.10;;;;;;;0.81;73.45;98309.41;4931557;29;20052;-77
2022/01/08 02:54:16;;;;;;;5.45;4.22;;;;;;;0.77;73.35;98314.00;4868507;29;20044;-78
2022/01/08 02:56:44;;;;;;;5.20;4.53;;;;;;;0.72;73.73;98311.63;4931331;29;20094;-77
2022/01/08 02:59:10;;;;;;;6.35;4.65;;;;;;;0.61;74.09;98300.88;4899867;29;20071;-78
2022/01/08 03:01:36;;;;;;;6.95;5.03;;;;;;;0.65;73.95;98302.41;4915540;29;20072;-77
2022/01/08 03:04:02;;;;;;;4.75;4.03;;;;;;;0.63;73.42;98300.78;4900021;29;20072;-77
2022/01/08 03:06:29;;;;;;;4.60;4.05;;;;;;;0.59;73.18;98289.59;4884214;29;20048;-78
2022/01/08 03:08:55;;;;;;;5.10;4.35;;;;;;;0.56;73.22;98302.91;4899622;29;20051;-77
2022/01/08 03:11:21;;;;;;;6.57;4.85;;;;;;;0.56;73.28;98308.16;4916082;29;20055;-76
2022/01/08 03:13:47;;;;;;;6.65;4.72;;;;;;;0.46;73.83;98299.94;4915701;29;20050;-77
2022/01/08 03:16:14;;;;;;;5.25;4.07;;;;;;;0.42;74.13;98310.72;4915063;29;20130;-77
2022/01/08 03:18:40;;;;;;;6.78;5.25;;;;;;;0.50;73.60;98294.53;4916872;29;20500;-76
2022/01/08 03:21:14;;;;;;;7.70;5.30;;;;;;;0.51;73.28;98304.94;4915018;29;20048;-76
2022/01/08 03:23:51;;;;;;;5.20;4.38;;;;;;;0.41;73.36;98298.50;4885308;29;20139;-76
2022/01/08 03:26:18;;;;;;;5.57;4.57;;;;;;;0.39;73.87;98310.88;4914131;29;20098;-76
2022/01/08 03:28:44;;;;;;;6.45;4.88;;;;;;;0.35;73.71;98304.09;4884149;29;20040;-76
2022/01/08 03:31:10;;;;;;;6.32;4.68;;;;;;;0.35;73.57;98298.84;4883981;29;20051;-78
2022/01/08 03:33:36;;;;;;;5.70;4.75;;;;;;;0.31;74.63;98308.69;4899265;29;20044;-79
2022/01/08 03:36:03;;;;;;;8.38;5.82;;;;;;;0.35;74.43;98298.84;4916299;29;20051;-80
2022/01/08 03:38:30;;;;;;;7.63;5.93;;;;;;;0.38;74.60;98298.69;4934263;29;20484;-79
2022/01/08 03:40:56;;;;;;;7.75;5.80;;;;;;;0.30;74.65;98298.25;4887058;29;20123;-78
2022/01/08 03:43:22;;;;;;;7.90;5.38;;;;;;;0.30;74.43;98306.13;4933595;29;20056;-78
2022/01/08 03:45:48;;;;;;;8.07;5.68;;;;;;;0.26;74.92;98304.59;4918942;29;20063;-77
2022/01/08 03:48:32;;;;;;;6.72;5.18;;;;;;;0.22;75.05;98304.75;4917885;29;20544;-78
2022/01/08 03:50:59;;;;;;;5.15;4.65;;;;;;;0.18;75.25;98294.50;4888731;29;20048;-78
2022/01/08 03:53:26;;;;;;;8.57;5.05;;;;;;;0.22;75.48;98303.91;4917798;29;20055;-76
2022/01/08 03:55:51;;;;;;;12.80;4.55;;;;;;;0.11;76.44;98320.25;4902098;29;20040;-79
2022/01/08 03:58:18;;;;;;;4.40;3.72;;;;;;;0.01;76.73;98316.47;4917890;29;20087;-76
2022/01/08 04:00:46;;;;;;;5.65;4.72;;;;;;;-0.03;77.29;98309.66;4933297;29;20415;-77
2022/01/08 04:03:12;;;;;;;4.95;3.83;;;;;;;-0.10;77.54;98303.03;4917481;29;20044;-77
2022/01/08 04:05:38;;;;;;;4.95;4.30;;;;;;;-0.04;77.66;98303.56;4917734;29;20052;-77
2022/01/08 04:08:04;;;;;;;6.13;4.60;;;;;;;-0.11;77.86;98301.34;4902275;29;20047;-77
2022/01/08 04:10:30;;;;;;;5.78;4.70;;;;;;;-0.16;77.66;98298.09;4917723;29;20512;-80
2022/01/08 04:13:01;;;;;;;5.72;5.00;;;;;;;-0.05;77.61;98296.59;4886215;29;20078;-77
2022/01/08 04:17:53;;;;;;;8.27;5.38;;;;;;;-0.01;76.83;98297.28;4917131;29;20484;-80
2022/01/08 04:20:20;;;;;;;15.43;5.30;;;;;;;0.05;77.21;98307.47;4917271;29;20068;-78
2022/01/08 04:22:49;;;;;;;6.72;5.00;;;;;;;0.09;76.69;98308.16;4901891;29;20131;-78
2022/01/08 04:25:20;;;;;;;6.50;5.03;;;;;;;0.02;76.53;98312.88;4917378;29;20044;-79
2022/01/08 04:27:46;;;;;;;7.70;5.03;;;;;;;-0.02;77.03;98300.84;4917071;29;20383;-77
2022/01/08 04:30:12;;;;;;;7.60;5.15;;;;;;;-0.04;76.79;98297.44;4886499;29;20058;-75
2022/01/08 04:32:42;;;;;;;5.45;4.80;;;;;;;-0.09;76.96;98295.06;4932640;29;20476;-79
2022/01/08 04:35:08;;;;;;;5.05;4.22;;;;;;;-0.08;76.90;98301.16;4901656;29;20449;-78
2022/01/08 04:37:34;;;;;;;6.22;4.70;;;;;;;0.02;76.68;98296.28;4901267;29;20465;-78
2022/01/08 04:40:00;;;;;;;7.05;4.55;;;;;;;0.04;76.17;98295.28;4885606;29;1408334;-81
2022/01/08 04:42:26;;;;;;;6.18;4.50;;;;;;;0.02;75.92;98302.38;4902018;29;20096;-79
2022/01/08 04:44:54;;;;;;;7.82;4.80;;;;;;;0.00;75.89;98299.00;4886692;29;20047;-77
2022/01/08 04:47:20;;;;;;;5.50;4.22;;;;;;;-0.06;75.75;98302.78;4932812;29;20146;-77
2022/01/08 04:49:45;;;;;;;6.30;4.10;;;;;;;-0.14;75.83;98309.41;4902401;29;20507;-77
2022/01/08 04:52:11;;;;;;;5.68;4.30;;;;;;;-0.14;75.40;98306.78;4886515;29;20144;-76
2022/01/08 04:54:37;;;;;;;6.00;4.65;;;;;;;-0.11;75.26;98306.59;4902526;29;20058;-77
2022/01/08 04:57:03;;;;;;;4.70;3.58;;;;;;;-0.18;75.68;98321.00;4933931;29;20102;-79
2022/01/08 04:59:29;;;;;;;7.30;4.95;;;;;;;-0.18;75.08;98310.50;4902265;29;20056;-81
2022/01/08 05:01:55;;;;;;;7.50;4.22;;;;;;;-0.17;74.97;98325.31;4919853;29;20052;-77
2022/01/08 05:04:21;;;;;;;6.65;4.82;;;;;;;-0.18;75.24;98315.75;4933469;29;20639;-77
2022/01/08 05:06:47;;;;;;;5.82;4.82;;;;;;;-0.22;75.12;98311.59;4901946;29;20068;-77
2022/01/08 05:09:13;;;;;;;4.85;3.92;;;;;;;-0.22;74.78;98324.72;4901842;29;20044;-78
2022/01/08 05:11:39;;;;;;;3.10;2.83;;;;;;;-0.31;74.97;98326.88;4886120;29;20044;-78
2022/01/08 05:14:08;;;;;;;4.72;3.63;;;;;;;-0.29;75.13;98325.03;4918636;29;20048;-78
2022/01/08 05:16:34;;;;;;;4.32;3.10;;;;;;;-0.37;75.01;98327.19;4933343;29;20044;-79
2022/01/08 05:19:01;;;;;;;4.78;3.63;;;;;;;-0.35;74.56;98335.84;4918702;29;20051;-79
2022/01/08 05:21:30;;;;;;;3.63;2.75;;;;;;;-0.41;74.47;98323.03;4870663;29;20078;-77
2022/01/08 05:23:57;;;;;;;6.00;2.97;;;;;;;-0.37;73.81;98334.25;4886269;29;20056;-78
2022/01/08 05:26:25;;;;;;;3.83;2.80;;;;;;;-0.56;72.65;98334.34;4886303;29;20086;-78
2022/01/08 05:28:52;;;;;;;2.60;2.22;;;;;;;-0.52;72.38;98344.59;4885685;29;20404;-79
2022/01/08 05:31:21;;;;;;;3.03;2.33;;;;;;;-0.53;71.02;98347.28;4901588;29;20048;-80
2022/01/08 05:33:47;;;;;;;3.35;2.55;;;;;;;-0.71;71.06;98332.47;4917306;29;20047;-81
2022/01/08 05:36:13;;;;;;;9.43;2.78;;;;;;;-0.34;72.20;98337.56;4903658;29;20148;-81
2022/01/08 05:38:39;;;;;;;1.63;1.45;;;;;;;-0.63;68.75;98364.44;4901077;29;20495;-79
2022/01/08 05:41:05;;;;;;;19.15;3.75;;;;;;;-0.93;68.24;98370.28;4901276;29;20110;-78
2022/01/08 05:43:31;;;;;;;5.53;1.52;;;;;;;-1.17;67.96;98366.22;4932795;29;20051;-79
2022/01/08 05:45:57;;;;;;;2.50;1.55;;;;;;;-1.21;67.74;98376.00;4901121;29;20474;-77
2022/01/08 05:48:24;;;;;;;1.80;1.52;;;;;;;-1.27;67.39;98392.88;4918015;29;20043;-78
2022/01/08 05:50:50;;;;;;;4.13;1.83;;;;;;;-1.28;67.15;98401.69;4901163;29;20116;-77
2022/01/08 05:53:17;;;;;;;2.17;1.55;;;;;;;-1.55;67.19;98389.84;4932573;29;20448;-76
2022/01/08 05:55:43;;;;;;;1.60;1.50;;;;;;;-1.55;66.38;98402.94;4884972;29;20508;-77
2022/01/08 05:58:09;;;;;;;1.90;1.77;;;;;;;-1.56;66.72;98398.63;4931727;29;20169;-75
2022/01/08 06:00:35;;;;;;;3.00;2.08;;;;;;;-1.60;66.57;98411.03;4900782;29;20071;-76
2022/01/08 06:03:01;;;;;;;2.30;1.63;;;;;;;-1.67;67.58;98411.38;4916628;29;20078;-78
2022/01/08 06:05:27;;;;;;;6.85;1.90;;;;;;;-1.63;67.03;98407.69;4916606;29;20044;-81
2022/01/08 06:07:53;;;;;;;5.85;2.10;;;;;;;-1.46;67.19;98415.63;4932241;29;20063;-77
2022/01/08 06:10:19;;;;;;;4.03;2.20;;;;;;;-1.37;66.70;98428.31;4900523;29;20484;-78
2022/01/08 06:12:46;;;;;;;3.42;2.22;;;;;;;-1.47;65.90;98417.41;4917361;29;20044;-78
2022/01/08 06:15:12;;;;;;;4.45;2.05;;;;;;;-1.46;66.45;98434.00;4900508;29;20044;-76
2022/01/08 06:17:38;;;;;;;4.53;2.30;;;;;;;-1.41;66.74;98439.84;4885068;29;20523;-77
2022/01/08 06:20:05;;;;;;;4.70;2.38;;;;;;;-1.38;66.83;98431.84;4900322;29;20052;-78
2022/01/08 06:22:30;;;;;;;2.80;2.40;;;;;;;-1.20;66.62;98437.16;4916147;29;20504;-77
2022/01/08 06:24:57;;;;;;;6.57;2.17;;;;;;;-1.12;65.68;98435.88;4900499;29;20524;-76
2022/01/08 06:27:23;;;;;;;5.32;2.75;;;;;;;-0.97;65.73;98442.19;4931613;29;20044;-76
2022/01/08 06:29:49;;;;;;;2.88;2.38;;;;;;;-0.99;65.43;98449.25;4916392;29;20112;-76
2022/01/08 06:32:16;;;;;;;4.50;2.30;;;;;;;-1.06;65.34;98458.34;4899903;29;20044;-79
2022/01/08 06:34:43;;;;;;;2.60;1.95;;;;;;;-1.08;64.76;98454.94;4899951;29;20047;-79
2022/01/08 06:37:09;;;;;;;2.97;1.90;;;;;;;-1.02;64.72;98475.63;4876546;29;20047;-76
2022/01/08 06:39:35;;;;;;;2.35;2.15;;;;;;;-1.09;65.09;98468.97;4916733;29;20056;-77
2022/01/08 06:42:02;;;;;;;2.58;2.38;;;;;;;-1.04;65.93;98467.84;4884687;29;20150;-77
2022/01/08 06:44:28;;;;;;;8.98;2.10;;;;;;;-0.74;70.21;98469.94;4917165;29;20067;-80
2022/01/08 06:46:55;;;;;;;4.50;2.00;;;;;;;-0.62;65.71;98474.59;4875695;29;20055;-76
2022/01/08 06:49:20;;;;;;;5.68;2.65;;;;;;;-0.65;64.67;98468.63;4918810;29;20123;-76
2022/01/08 06:51:47;;;;;;;3.13;2.08;;;;;;;-0.68;65.01;98471.41;4899624;29;20048;-75
2022/01/08 06:54:13;;;;;;;2.65;2.45;;;;;;;-0.60;64.78;98469.25;4915205;29;20095;-76
2022/01/08 06:56:39;;;;;;;3.13;2.42;;;;;;;-0.53;64.92;98465.41;4881555;29;20447;-75
2022/01/08 06:59:05;;;;;;;4.13;2.35;;;;;;;-0.39;64.42;98460.31;4915623;29;20602;-78
2022/01/08 07:01:31;;;;;;;3.05;2.13;;;;;;;-0.55;64.41;98462.03;4899813;29;20520;-78
2022/01/08 07:03:57;;;;;;;2.60;2.33;;;;;;;-0.78;64.33;98461.34;4899811;29;20055;-79
2022/01/08 07:06:23;;;;;;;2.20;2.00;;;;;;;-0.89;64.63;98476.75;4899999;29;20078;-80
2022/01/08 07:08:49;;;;;;;2.80;2.20;;;;;;;-1.18;65.42;98472.88;4883802;29;20455;-79
2022/01/08 07:11:16;;;;;;;3.63;2.45;;;;;;;-1.09;65.76;98479.47;4899477;29;20058;-88
2022/01/08 07:13:42;;;;;;;2.15;1.95;;;;;;;-1.16;65.29;98478.91;4868556;29;20058;-79
2022/01/08 07:16:09;;;;;;;1.95;1.83;;;;;;;-1.03;65.68;98487.06;4869973;29;20052;-81
2022/01/08 07:18:34;;;;;;;2.20;1.80;;;;;;;-0.96;65.32;98479.75;4880831;29;20135;-81
2022/01/08 07:21:00;;;;;;;1.67;1.58;;;;;;;-1.15;64.92;98474.53;4912262;29;20185;-81
2022/01/08 07:23:26;;;;;;;1.80;1.70;;;;;;;-1.19;65.93;98478.22;4881215;29;20107;-80
2022/01/08 07:25:52;;;;;;;4.85;1.67;;;;;;;-1.22;66.46;98482.66;4921068;29;20492;-79
2022/01/08 07:28:18;;;;;;;4.82;1.70;;;;;;;-1.08;66.32;98496.91;4865919;29;20058;-80
2022/01/08 07:30:45;;;;;;;3.55;1.67;;;;;;;-1.06;66.97;98495.06;4910379;29;20130;-82
2022/01/08 07:33:11;;;;;;;1.70;1.52;;;;;;;-1.13;66.90;98509.38;4931242;29;20051;-81
2022/01/08 07:35:37;;;;;;;1.98;1.88;;;;;;;-1.00;67.12;98500.03;4899523;29;20044;-80
2022/01/08 07:38:03;;;;;;;1.80;1.70;;;;;;;-0.76;67.36;98500.63;4883941;29;20452;-78
2022/01/08 07:40:30;;;;;;;2.30;1.90;;;;;;;-0.70;66.55;98504.75;4917923;29;20397;-79
2022/01/08 07:42:56;;;;;;;3.28;2.40;;;;;;;-0.69;68.54;98509.91;4920651;29;20051;-83
2022/01/08 07:45:22;;;;;;;1.90;1.75;;;;;;;-0.36;67.62;98515.31;4913203;29;20453;-79
2022/01/08 07:47:48;;;;;;;0.98;0.98;;;;;;;-0.69;66.08;98535.31;4919158;29;20139;-80
2022/01/08 07:50:14;;;;;;;1.13;1.10;;;;;;;-1.03;67.26;98526.41;4917086;29;20076;-77
2022/01/08 07:52:40;;;;;;;1.50;1.02;;;;;;;-1.29;68.00;98540.69;4915804;29;20051;-78
2022/01/08 07:55:06;;;;;;;1.13;0.98;;;;;;;-1.50;68.42;98566.09;4916566;29;20036;-82
2022/01/08 07:57:32;;;;;;;0.90;0.90;;;;;;;-1.65;69.22;98548.41;4899550;29;20052;-80
2022/01/08 07:59:58;;;;;;;1.20;1.10;;;;;;;-1.64;69.89;98582.41;4915422;29;20044;-82
2022/01/08 08:02:24;;;;;;;2.33;1.05;;;;;;;-1.77;70.16;98589.94;4899525;29;20523;-77
2022/01/08 08:04:50;;;;;;;0.77;0.77;;;;;;;-1.93;70.40;98591.47;4899292;29;20055;-79
2022/01/08 08:07:36;;;;;;;0.80;0.80;;;;;;;-1.96;70.16;98575.88;4883745;29;20044;-79
2022/01/08 08:10:07;;;;;;;1.08;1.00;;;;;;;-2.05;70.21;98608.56;4915083;29;20044;-79
2022/01/08 08:12:34;;;;;;;0.85;0.85;;;;;;;-2.10;69.55;98578.25;4899454;29;20496;-81
2022/01/08 08:15:00;;;;;;;2.95;1.10;;;;;;;-2.11;69.21;98602.72;4930859;29;20080;-84
2022/01/08 08:17:26;;;;;;;1.02;0.90;;;;;;;-2.30;69.07;98613.06;4916025;29;20063;-79
2022/01/08 08:19:51;;;;;;;2.35;0.70;;;;;;;-2.40;68.69;98651.00;4914716;29;20043;-79
2022/01/08 08:22:17;;;;;;;1.30;1.17;;;;;;;-2.43;67.79;98606.63;4916307;29;20124;-78
2022/01/08 08:24:43;;;;;;;1.23;1.10;;;;;;;-2.27;67.68;98639.13;4934069;29;20059;-79
2022/01/08 08:27:09;;;;;;;3.33;1.05;;;;;;;-2.44;67.67;98671.22;4902568;29;20196;-80
2022/01/08 08:29:38;;;;;;;2.60;1.15;;;;;;;-2.58;67.59;98670.88;4871462;29;20048;-80
2022/01/08 08:32:04;;;;;;;0.95;0.95;;;;;;;-2.71;68.03;98702.72;4918327;29;20058;-79
2022/01/08 08:34:30;;;;;;;1.05;0.90;;;;;;;-2.89;67.70;98666.78;4934133;29;20135;-78
2022/01/08 08:36:56;;;;;;;1.02;1.02;;;;;;;-3.07;68.26;98662.22;4902803;29;20119;-79
2022/01/08 08:39:23;;;;;;;2.17;1.23;;;;;;;-3.25;68.44;98711.59;4933769;29;20084;-79
2022/01/08 08:41:49;;;;;;;1.33;1.23;;;;;;;-3.39;68.36;98682.47;4902652;29;20080;-81
2022/01/08 08:44:15;;;;;;;1.98;1.33;;;;;;;-3.33;67.58;98690.09;4918557;29;20471;-80
2022/01/08 08:46:41;;;;;;;1.42;1.10;;;;;;;-3.36;67.06;98698.03;4933134;29;20060;-81
2022/01/08 08:49:07;;;;;;;2.17;1.48;;;;;;;-3.21;66.26;98692.28;4921415;29;20052;-82
2022/01/08 08:51:33;;;;;;;2.63;1.33;;;;;;;-2.88;67.19;98715.53;4904425;29;20503;-82
2022/01/08 08:53:59;;;;;;;5.28;1.80;;;;;;;-2.92;65.45;98713.97;4902538;29;20048;-80
2022/01/08 08:56:25;;;;;;;1.23;1.10;;;;;;;-2.98;64.62;98740.31;4918088;29;20393;-79
2022/01/08 08:58:51;;;;;;;1.35;1.33;;;;;;;-2.69;64.32;98752.38;4902458;29;20482;-83
2022/01/08 09:01:17;;;;;;;1.38;1.30;;;;;;;-2.67;62.85;98755.78;4917975;29;20135;-80
2022/01/08 09:03:42;;;;;;;1.48;1.38;;;;;;;-2.60;61.45;98727.63;4918774;29;20052;-85
2022/01/08 09:06:08;;;;;;;1.73;1.40;;;;;;;-2.87;61.12;98763.47;4886826;29;20496;-82
2022/01/08 09:08:34;;;;;;;1.52;1.08;;;;;;;-3.08;61.73;98786.00;4933677;29;20117;-89
2022/01/08 09:11:00;;;;;;;1.73;1.50;;;;;;;-2.90;67.72;98774.88;4902427;29;20051;-80
2022/01/08 09:13:28;;;;;;;1.20;1.10;;;;;;;-2.57;62.25;98745.81;4919976;29;20056;-88
2022/01/08 09:15:54;;;;;;;1.45;1.35;;;;;;;-3.20;61.00;98847.34;4886691;29;20048;-83
2022/01/08 09:18:20;;;;;;;1.77;1.15;;;;;;;-3.79;62.53;98809.16;4935137;29;20099;-83
2022/01/08 09:20:46;;;;;;;6.55;1.67;;;;;;;-4.03;63.33;98820.31;4903543;29;20075;-81
2022/01/08 09:23:12;;;;;;;2.78;1.35;;;;;;;-4.28;63.97;98846.28;4886176;29;20055;-84
2022/01/08 09:25:37;;;;;;;2.60;1.15;;;;;;;-4.51;64.94;98828.69;4901790;29;20083;-82
2022/01/08 09:28:04;;;;;;;1.73;1.63;;;;;;;-4.31;64.85;98843.78;4886136;29;20047;-82
2022/01/08 09:30:30;;;;;;;5.40;1.58;;;;;;;-4.03;63.74;98836.84;4888548;29;20523;-81
2022/01/08 09:32:56;;;;;;;1.80;1.70;;;;;;;-4.00;63.11;98846.34;4890841;29;20079;-77
2022/01/08 09:35:22;;;;;;;1.70;1.60;;;;;;;-4.21;63.14;98853.06;4900717;29;20048;-79
2022/01/08 09:37:48;;;;;;;4.65;1.83;;;;;;;-4.24;63.22;98843.56;4932842;29;20044;-80
2022/01/08 09:40:15;;;;;;;2.22;1.40;;;;;;;-4.22;61.88;98857.41;4932652;29;20064;-80
2022/01/08 09:42:41;;;;;;;2.90;1.80;;;;;;;-4.40;60.63;98860.50;4885792;29;20048;-80
2022/01/08 09:45:08;;;;;;;2.20;1.60;;;;;;;-4.76;61.02;98873.66;4932499;29;20052;-80
2022/01/08 09:47:34;;;;;;;3.28;1.55;;;;;;;-4.87;61.33;98867.84;4887869;29;20054;-83
2022/01/08 09:50:02;;;;;;;4.82;1.58;;;;;;;-4.94;61.63;98855.88;4917202;29;20044;-79
2022/01/08 09:52:29;;;;;;;1.90;1.33;;;;;;;-4.80;61.79;98866.81;4917139;29;20048;-80
2022/01/08 09:54:56;;;;;;;2.10;1.60;;;;;;;-4.89;61.86;98869.63;4916489;29;20062;-78
2022/01/08 09:57:22;;;;;;;2.63;1.65;;;;;;;-4.82;61.76;98870.34;4885485;29;20116;-80
2022/01/08 09:59:48;;;;;;;2.95;2.00;;;;;;;-4.93;62.13;98899.28;4900629;29;20483;-78
2022/01/08 10:02:19;;;;;;;2.13;1.58;;;;;;;-4.71;61.89;98887.41;4918007;29;20044;-82
2022/01/08 10:04:45;;;;;;;1.27;1.23;;;;;;;-5.00;61.98;98903.81;4900603;29;20079;-82
2022/01/08 10:07:26;;;;;;;1.70;1.60;;;;;;;-5.33;63.03;98926.28;4885799;29;20068;-83
2022/01/08 10:10:15;;;;;;;3.63;1.58;;;;;;;-5.56;63.88;98912.94;4901404;29;20091;-80
2022/01/08 10:12:46;;;;;;;1.92;1.50;;;;;;;-5.60;64.01;98917.34;4883125;29;20460;-79
2022/01/08 10:18:05;;;;;;;2.28;1.40;;;;;;;-5.26;63.22;98959.13;4905602;29;20060;-79
2022/01/08 10:20:40;;;;;;;3.53;1.83;;;;;;;-5.16;63.07;98949.34;4932008;29;20060;-81
2022/01/08 10:23:11;;;;;;;1.70;1.60;;;;;;;-5.06;62.78;98963.03;4885517;29;20052;-83
2022/01/08 10:26:01;;;;;;;1.40;1.30;;;;;;;-4.97;62.69;98954.97;4901078;29;20420;-82
2022/01/08 10:28:47;;;;;;;1.42;1.20;;;;;;;-5.06;62.73;98968.25;4885144;29;20642;-82
2022/01/08 10:31:16;;;;;;;1.55;1.45;;;;;;;-5.08;61.85;98977.81;4916886;29;20055;-83
2022/01/08 10:33:48;;;;;;;2.60;1.40;;;;;;;-5.10;61.26;98961.38;4916108;29;20641;-82
2022/01/08 10:36:14;;;;;;;1.52;1.42;;;;;;;-5.34;61.85;98992.31;4900539;29;20055;-82
2022/01/08 10:38:40;;;;;;;2.85;1.30;;;;;;;-5.30;61.94;99024.34;4900182;29;20048;-82
2022/01/08 10:41:16;;;;;;;2.25;1.42;;;;;;;-5.20;61.76;99003.25;4916024;29;20052;-81
2022/01/08 10:43:44;;;;;;;1.63;1.40;;;;;;;-5.38;62.09;99006.25;4917336;29;20087;-80
2022/01/08 10:46:17;;;;;;;1.70;1.60;;;;;;;-5.23;61.86;99015.50;4931640;29;20404;-81
2022/01/08 10:48:50;;;;;;;1.65;1.45;;;;;;;-5.23;61.55;99011.19;4900279;29;20059;-81
2022/01/08 10:51:24;;;;;;;2.42;1.50;;;;;;;-5.25;61.50;99005.13;4917079;29;20040;-83
2022/01/08 10:53:59;;;;;;;3.83;1.73;;;;;;;-5.38;61.41;99038.41;4916124;29;20048;-81
2022/01/08 10:56:34;;;;;;;3.90;1.83;;;;;;;-5.32;61.80;99031.34;4916296;29;20040;-84
2022/01/08 10:59:02;;;;;;;1.38;1.27;;;;;;;-5.41;61.77;99037.63;4915925;29;20075;-83
2022/01/08 11:01:51;;;;;;;3.63;1.70;;;;;;;-5.25;61.58;99054.63;4899967;29;20079;-82
2022/01/08 11:04:46;;;;;;;3.17;1.83;;;;;;;-5.18;61.39;99044.94;4900002;29;20054;-82
2022/01/08 11:07:16;;;;;;;3.00;1.95;;;;;;;-4.97;61.03;99052.28;4898353;29;20044;-82
2022/01/08 11:09:43;;;;;;;4.97;1.65;;;;;;;-4.76;60.37;99057.91;4931162;29;20051;-81
2022/01/08 11:12:13;;;;;;;2.85;1.55;;;;;;;-4.64;59.98;99058.47;4899684;29;20400;-82
2022/01/08 11:17:19;;;;;;;1.95;1.50;;;;;;;-4.66;59.16;99060.28;4915270;29;20095;-82
2022/01/08 11:19:49;;;;;;;2.97;1.60;;;;;;;-4.76;59.73;99087.44;4901670;29;20416;-82
2022/01/08 11:22:18;;;;;;;1.85;1.50;;;;;;;-4.89;59.65;99096.41;4916595;29;20060;-84
2022/01/08 11:25:11;;;;;;;1.98;1.58;;;;;;;-5.13;60.39;99095.19;4917136;29;20104;-83
2022/01/08 11:28:05;;;;;;;2.60;1.67;;;;;;;-5.42;61.18;99109.66;4881804;29;20527;-84
2022/01/08 11:30:33;;;;;;;4.82;1.85;;;;;;;-5.59;61.79;99105.69;4899812;29;20048;-83
2022/01/08 11:33:05;;;;;;;3.42;1.33;;;;;;;-5.69;62.08;99144.03;4884258;29;20052;-83
2022/01/08 11:35:32;;;;;;;2.72;1.98;;;;;;;-5.84;63.16;99107.84;4899463;29;20048;-83
2022/01/08 11:38:04;;;;;;;3.78;2.40;;;;;;;-5.90;63.59;99121.84;4915491;29;20048;-83
2022/01/08 11:40:30;;;;;;;8.20;3.05;;;;;;;-6.13;64.27;99110.13;4884706;29;20150;-82
2022/01/08 11:42:59;;;;;;;5.22;3.33;;;;;;;-6.27;65.21;99129.44;4915515;29;20138;-83
2022/01/08 11:45:28;;;;;;;2.20;1.83;;;;;;;-6.33;65.63;99119.13;4915670;29;20052;-82
2022/01/08 11:47:56;;;;;;;1.67;1.58;;;;;;;-6.37;65.97;99132.16;4915315;29;20063;-83
2022/01/08 11:50:25;;;;;;;2.58;2.05;;;;;;;-6.51;66.40;99128.03;4884284;29;20047;-82
2022/01/08 11:53:10;;;;;;;;;;;;;;;-6.41;66.48;99140.03;4884845;29;20051;-81
2022/01/08 11:55:36;;;;;;;13.35;6.43;;;;;;;-6.54;66.99;99146.28;4899701;29;19957;-83
2022/01/08 11:58:23;;;;;;;16.52;6.72;;;;;;;-6.54;67.26;99154.09;4886778;29;20055;-81
2022/01/08 12:01:06;;;;;;;13.77;6.30;;;;;;;-6.54;67.62;99152.38;4902591;29;20075;-82
2022/01/08 12:03:39;;;;;;;13.60;5.75;;;;;;;-6.50;67.93;99146.25;4886878;29;20100;-83
2022/01/08 12:06:26;;;;;;;2.78;2.38;;;;;;;-6.46;67.56;99167.88;4902731;29;20135;-81